Hazleton, PA

12:38 PM EST en Noviembre 24, 2014 (GMT -0500)
Third Base Luncheonette | Change Station
CLOSE
Current Station
Estación meteorológica personal
Location: Hazleton, PA
Altura: 1785 ft
Estaciones meteorológicas cercanas

Alt 1785 ft 40.97 °N, 75.97 °W | Updated 2 seconds ago

Muy nublado
Muy nublado
62.4 ° F
Sensación térmica 62.4 ° F
N
7.0
Viento Variable Viento desde SSE
Gusts 24.0 mph

Hoy
Alta -- | Baja -- ° F
--% Posibilidad de precipitaciones
Ayer
Alta -- | Baja -- ° F
Precip. -- pul
7:01 AM 4:39 PM
Creciente, 6% visible
Presión 29.50 pul
Visibilidad 10.0 Millas
Nubes Despejado
Punto de rocío 58 ° F
Humedad 84%
Precipitaciones 0.83 pul
Espesor de la nieve No disponible.
UV 3 de una escala de 12
Polen .10 de una escala de 12
Calidad del aire No disponible.
Flu Activity No disponible.
METAR KAVP 241654Z 20020G34KT 10SM CLR 20/12 A2951 RMK AO2 PK WND 20034/1647 SLP989 T02000122

More Conditions Fewer Conditions

Presión 29.50 pul
Visibilidad 10.0 Millas
Nubes Despejado
Punto de rocío 58 ° F
Humedad 84%
Precipitaciones 0.83 pul
Espesor de la nieve No disponible.
UV 3 de una escala de 12
Polen .10 de una escala de 12
Calidad del aire No disponible.
Flu Activity No disponible.
METAR KAVP 241654Z 20020G34KT 10SM CLR 20/12 A2951 RMK AO2 PK WND 20034/1647 SLP989 T02000122

More Conditions Fewer Conditions

10-Day Weather Forecast

Almanac

Astronomía

Nov. 24, 2014 Salida Puesta
Hora real
Crepúsculo civil
Crepúsculo náutico
Crepúsculo astronómico
Luna
Horas de luz
Horas de luz
Tomorrow will be .
, % of the Moon is Illuminated

Extremos de hoy

Máximos del estado Bajos del estado

Community

WunderPhotos

Upload Photos

1,773,378 ¡fotos cargadas!

WunderBlogs® & News

Nearby

Calidad del aire

  Calidad del aire Índice AQ Contaminante
Not available.

Grosos de nieve

Estación Profundido Altura

Actividad de terremotos

Ciudad Distance Mag. Tiempo y dato
Magnitud mínima muestra es 2,5.

Temperaturas de aguas costeras

Lugar Temperatura

Estaciones meteorológicas cercanas